NCAR-RAP Real-Time Weather Data

Output produced by METARs form (12 August 2020  18:22 UTC)
found at http://weather.rap.ucar.edu/surface/
 
KSFO 121756Z 35005KT 10SM FEW009 FEW015 19/13 A2995 RMK AO2 SLP142 T01940133 10194 20156 51007
KSFO 121702Z 33009KT 10SM FEW009 FEW015 18/13 A2995 RMK AO2 T01780128
KSFO 121656Z 34010KT 10SM FEW009 SCT104 18/13 A2995 RMK AO2 SLP140 T01780133
KSFO 121556Z 33007KT 9SM FEW008 OVC012 17/13 A2994 RMK AO2 SLP138 T01670133
KSFO 121456Z 30005KT 9SM FEW007 OVC011 16/13 A2993 RMK AO2 SLP135 T01610133 53005
KSFO 121356Z 32005KT 9SM FEW007 OVC011 16/13 A2992 RMK AO2 SLP131 T01610128
KSFO 121256Z 25003KT 10SM FEW007 OVC011 16/13 A2992 RMK AO2 SLP131 T01610128
KSFO 121156Z 29007KT 10SM FEW006 BKN010 16/13 A2992 RMK AO2 SLP130 T01560128 10167 20144 55001
KSFO 121056Z 29006KT 10SM FEW006 BKN010 15/13 A2991 RMK AO2 SLP129 T01500128
KSFO 121047Z 30005KT 10SM FEW006 BKN010 16/13 A2992 RMK AO2 T01560128
KSFO 120956Z 30007KT 10SM FEW008 SCT016 14/13 A2992 RMK AO2 SLP130 T01440128
KSFO 120931Z 30007KT 10SM FEW008 SCT015 15/13 A2992 RMK AO2 T01500128
KSFO 120856Z 28006KT 10SM FEW008 BKN015 16/13 A2992 RMK AO2 SLP131 T01610128 58002
KSFO 120756Z 30007KT 10SM FEW008 16/13 A2993 RMK AO2 SLP134 T01610128 402500144
KSFO 120656Z 30007KT 10SM FEW008 16/13 A2993 RMK AO2 SLP133 T01610128
KSFO 120556Z 30009KT 10SM FEW008 17/13 A2992 RMK AO2 SLP133 T01670128 10211 20161 51010
KSFO 120456Z 29011KT 10SM FEW008 17/13 A2992 RMK AO2 SLP133 T01670128
KSFO 120356Z 29013KT 10SM FEW008 16/13 A2991 RMK AO2 SLP127 T01610128
KSFO 120256Z 29016KT 10SM FEW008 18/13 A2989 RMK AO2 SLP123 T01780128 53002
KSFO 120156Z 31012KT 10SM FEW009 19/13 A2989 RMK AO2 SLP120 T01940128
KSFO 120056Z 30017KT 10SM FEW009 FEW035 20/13 A2989 RMK AO2 SLP122 T02000128
KSFO 112356Z 30018KT 10SM FEW009 FEW035 21/13 A2989 RMK AO2 SLP121 T02110128 10250 20194 56013
KSFO 112256Z 31016KT 10SM FEW008 FEW035 22/13 A2990 RMK AO2 SLP125 T02220133
KSFO 112156Z 30020KT 10SM FEW008 FEW035 22/13 A2991 RMK AO2 SLP129 T02170133
KSFO 112056Z 29017G26KT 10SM FEW009 FEW035 23/13 A2993 RMK AO2 PK WND 30026/2047 SLP134 T02330128 58008
KSFO 111956Z 32014G22KT 10SM FEW009 FEW035 23/13 A2994 RMK AO2 SLP138 T02280133
KSFO 111856Z 03007KT 10SM FEW009 22/14 A2994 RMK AO2 SLP140 T02170139
KSFO 111756Z 05007KT 10SM FEW009 FEW020 19/13 A2995 RMK AO2 SLP141 T01940128 10194 20144 51006
KSFO 111656Z 07004KT 10SM FEW009 FEW015 19/13 A2994 RMK AO2 SLP140 T01890128
KSFO 111556Z 00000KT 10SM FEW009 SCT015 18/12 A2995 RMK AO2 SLP140 T01830122
KSFO 111456Z 30003KT 10SM FEW009 BKN015 16/12 A2993 RMK AO2 SLP135 T01610117 52010
KSFO 111356Z 19003KT 10SM FEW009 BKN015 14/12 A2992 RMK AO2 SLP133 T01440117
KSFO 111256Z 22004KT 10SM FEW007 SCT013 14/12 A2991 RMK AO2 SLP128 T01440117
KSFO 111156Z 30005KT 10SM FEW007 BKN013 14/12 A2990 RMK AO2 SLP125 T01440122 10156 20144 55002
KSFO 111118Z 32003KT 10SM FEW007 BKN011 14/12 A2990 RMK AO2 T01440122
KSFO 111056Z 31003KT 10SM FEW007 15/12 A2990 RMK AO2 SLP125 T01500117
KSFO 110956Z 30007KT 10SM FEW007 16/12 A2990 RMK AO2 SLP125 T01560122
KSFO 110856Z 31009KT 10SM FEW006 16/13 A2991 RMK AO2 SLP128 T01560128 50000
KSFO 110756Z 31008KT 10SM FEW004 14/13 A2991 RMK AO2 SLP128 T01440128 402280139
KSFO 110656Z 31007KT 10SM FEW004 16/13 A2991 RMK AO2 SLP128 T01560128
KSFO 110556Z 31009KT 10SM FEW004 16/13 A2991 RMK AO2 SLP128 T01560128 10217 20156 51011
KSFO 110456Z 30010KT 10SM FEW006 16/13 A2991 RMK AO2 SLP128 T01610128
KSFO 110356Z 31012KT 10SM FEW006 17/13 A2989 RMK AO2 SLP121 T01670133
KSFO 110256Z 31014KT 10SM FEW006 17/13 A2988 RMK AO2 SLP116 T01670128 53001
KSFO 110156Z 32013KT 10SM FEW009 19/13 A2987 RMK AO2 SLP114 T01940133
KSFO 110056Z 31012KT 10SM FEW009 21/13 A2987 RMK AO2 SLP114 T02110133
KSFO 102356Z 32015KT 10SM FEW009 21/13 A2987 RMK AO2 SLP116 T02110133 10228 20194 56009
KSFO 102256Z 31015KT 10SM FEW009 22/13 A2987 RMK AO2 SLP116 T02220133
KSFO 102156Z 32015KT 10SM FEW038 23/13 A2989 RMK AO2 SLP120 T02280133
KSFO 102056Z 32013KT 9SM FEW009 23/13 A2990 RMK AO2 SLP125 T02280133 58011
KSFO 101956Z 33011KT 10SM FEW009 23/14 A2992 RMK AO2 SLP130 T02280139
KSFO 101856Z 02007KT 9SM FEW009 21/14 A2993 RMK AO2 SLP134 T02060144